Time;durP1;ratioP1;P1;durP2;ratioP2;P2;SDS_P1;SDS_P2;PMS_P1;PMS_P2;Temp;Humidity;BMP_temperature;BMP_pressure;BME280_temperature;BME280_humidity;BME280_pressure;Samples;Min_cycle;Max_cycle;Signal;HPM_P1;HPM_P2
2022/04/19 00:02:10;;;;;;;23.30;5.00;;;;;;;;;;6145696;23;20010;-87
2022/04/19 00:04:59;;;;;;;20.75;5.05;;;;;;;;;;6145526;23;20018;-87
2022/04/19 00:07:41;;;;;;;27.17;5.03;;;;;;;;;;6164665;23;20005;-87
2022/04/19 00:10:31;;;;;;;18.67;5.10;;;;;;;;;;6176218;23;20032;-87
2022/04/19 00:13:39;;;;;;;14.32;4.68;;;;;;;;;;6114731;23;20033;-87
2022/04/19 00:16:06;;;;;;;11.80;4.13;;;;;;;;;;6093256;23;20060;-87
2022/04/19 00:18:32;;;;;;;11.85;4.13;;;;;;;;;;6182757;23;20032;-87
2022/04/19 00:21:38;;;;;;;13.60;4.40;;;;;;;;;;6205454;23;20005;-86
2022/04/19 00:24:20;;;;;;;18.50;5.25;;;;;;;;;;6206697;23;20084;-86
2022/04/19 00:27:01;;;;;;;10.25;3.60;;;;;;;;;;6204734;23;19985;-87
2022/04/19 00:29:47;;;;;;;17.90;4.63;;;;;;;;;;6206292;23;20048;-86
2022/04/19 00:32:36;;;;;;;24.38;5.35;;;;;;;;;;6206926;23;20016;-87
2022/04/19 00:35:09;;;;;;;17.50;4.22;;;;;;;;;;6205768;23;20005;-86
2022/04/19 00:37:44;;;;;;;17.35;4.80;;;;;;;;;;6205368;23;20020;-87
2022/04/19 00:40:19;;;;;;;16.63;4.93;;;;;;;;;;6198973;23;20076;-86
2022/04/19 00:43:03;;;;;;;19.88;5.57;;;;;;;;;;6203291;23;20005;-86
2022/04/19 00:45:49;;;;;;;15.68;4.50;;;;;;;;;;6237391;23;20056;-87
2022/04/19 00:48:15;;;;;;;15.82;5.32;;;;;;;;;;6235875;23;20015;-86
2022/04/19 00:51:10;;;;;;;19.13;5.43;;;;;;;;;;6235845;23;20023;-87
2022/04/19 00:53:37;;;;;;;17.98;5.00;;;;;;;;;;6235449;23;20092;-87
2022/04/19 00:56:15;;;;;;;17.23;5.05;;;;;;;;;;6235256;23;20008;-87
2022/04/19 00:59:02;;;;;;;17.73;5.28;;;;;;;;;;6236794;23;19996;-86
2022/04/19 01:01:50;;;;;;;16.23;4.78;;;;;;;;;;6237134;23;19988;-86
2022/04/19 01:04:20;;;;;;;13.90;4.10;;;;;;;;;;6236849;23;20027;-87
2022/04/19 01:07:11;;;;;;;15.57;4.85;;;;;;;;;;6237165;23;20012;-87
2022/04/19 01:10:03;;;;;;;15.07;4.90;;;;;;;;;;6206363;23;20069;-87
2022/04/19 01:15:25;;;;;;;19.35;5.03;;;;;;;;;;6203382;23;20020;-90
2022/04/19 01:18:14;;;;;;;17.33;4.95;;;;;;;;;;6179368;23;20005;-87
2022/04/19 01:20:42;;;;;;;16.73;3.90;;;;;;;;;;6146108;23;20006;-90
2022/04/19 01:23:08;;;;;;;9.95;4.30;;;;;;;;;;6122445;23;19997;-86
2022/04/19 01:25:34;;;;;;;15.38;4.72;;;;;;;;;;6138923;23;20060;-89
2022/04/19 01:28:20;;;;;;;15.43;5.00;;;;;;;;;;6123171;23;20026;-87
2022/04/19 01:30:55;;;;;;;15.82;5.07;;;;;;;;;;6082068;23;20002;-87
2022/04/19 01:34:02;;;;;;;18.52;5.38;;;;;;;;;;6142194;23;20006;-86
2022/04/19 01:36:56;;;;;;;20.98;5.70;;;;;;;;;;6144228;23;20012;-87
2022/04/19 01:42:10;;;;;;;15.98;4.80;;;;;;;;;;6195201;23;20071;-89
2022/04/19 01:44:38;;;;;;;20.67;5.75;;;;;;;;;;6195805;23;20662;-88
2022/04/19 01:47:07;;;;;;;14.02;4.80;;;;;;;;;;6168174;23;20350;-86
2022/04/19 01:49:36;;;;;;;17.23;5.60;;;;;;;;;;6191682;23;20009;-93
2022/04/19 01:52:14;;;;;;;16.95;5.43;;;;;;;;;;6237868;23;20004;-85
2022/04/19 01:54:40;;;;;;;33.28;7.63;;;;;;;;;;6262533;23;20011;-85
2022/04/19 01:57:07;;;;;;;24.50;5.70;;;;;;;;;;6263808;23;20004;-85
2022/04/19 01:59:35;;;;;;;18.20;5.60;;;;;;;;;;6267783;23;20004;-85
2022/04/19 02:02:23;;;;;;;15.13;4.82;;;;;;;;;;6266549;23;19996;-85
2022/04/19 02:04:52;;;;;;;14.68;4.90;;;;;;;;;;6266186;23;20008;-86
2022/04/19 02:07:18;;;;;;;27.48;6.15;;;;;;;;;;6265164;23;20011;-85
2022/04/19 02:09:44;;;;;;;18.52;4.60;;;;;;;;;;6266655;23;20004;-85
2022/04/19 02:12:10;;;;;;;16.40;5.03;;;;;;;;;;6265425;23;20000;-85
2022/04/19 02:14:56;;;;;;;13.98;4.28;;;;;;;;;;6262730;23;20035;-85
2022/04/19 02:17:23;;;;;;;18.60;4.85;;;;;;;;;;6224887;23;20345;-91
2022/04/19 02:20:10;;;;;;;11.85;3.97;;;;;;;;;;6218574;23;20451;-93
2022/04/19 02:22:39;;;;;;;15.80;4.25;;;;;;;;;;6257232;23;20031;-88
2022/04/19 02:25:16;;;;;;;12.93;3.60;;;;;;;;;;6247964;23;20008;-86
2022/04/19 02:27:42;;;;;;;15.93;4.28;;;;;;;;;;6269305;23;19996;-86
2022/04/19 02:30:32;;;;;;;13.73;3.58;;;;;;;;;;6242526;23;20000;-88
2022/04/19 02:33:02;;;;;;;11.27;3.70;;;;;;;;;;6258508;23;20008;-94
2022/04/19 02:35:28;;;;;;;8.65;3.47;;;;;;;;;;6248261;23;20005;-90
2022/04/19 02:37:56;;;;;;;10.50;4.07;;;;;;;;;;6258743;23;20480;-94
2022/04/19 02:40:22;;;;;;;16.50;4.40;;;;;;;;;;6221160;23;20054;-93
2022/04/19 02:42:49;;;;;;;10.18;3.53;;;;;;;;;;6217158;23;20311;-91
2022/04/19 02:45:19;;;;;;;13.80;4.07;;;;;;;;;;6253840;23;20028;-92
2022/04/19 02:47:46;;;;;;;12.93;3.60;;;;;;;;;;6259849;23;20322;-92
2022/04/19 02:50:16;;;;;;;12.30;3.80;;;;;;;;;;6259133;23;20000;-93
2022/04/19 02:52:42;;;;;;;6.03;3.47;;;;;;;;;;6251198;23;19996;-90
2022/04/19 02:55:08;;;;;;;9.52;3.53;;;;;;;;;;6217043;23;20004;-86
2022/04/19 02:57:34;;;;;;;12.77;3.80;;;;;;;;;;6217588;23;20004;-90
2022/04/19 03:00:00;;;;;;;9.55;3.40;;;;;;;;;;6243257;23;20001;-89
2022/04/19 03:02:26;;;;;;;13.45;4.18;;;;;;;;;;6242991;23;20075;-92
2022/04/19 03:04:52;;;;;;;19.45;4.15;;;;;;;;;;6243651;23;20063;-89
2022/04/19 03:07:19;;;;;;;14.02;4.55;;;;;;;;;;6243304;23;20434;-90
2022/04/19 03:09:45;;;;;;;10.25;3.72;;;;;;;;;;6243551;23;20091;-91
2022/04/19 03:12:11;;;;;;;6.68;3.13;;;;;;;;;;6218300;23;20015;-92
2022/04/19 03:14:38;;;;;;;8.20;3.42;;;;;;;;;;6244770;23;20000;-91
2022/04/19 03:17:06;;;;;;;13.63;3.92;;;;;;;;;;6243973;23;20000;-92
2022/04/19 03:19:32;;;;;;;10.63;3.78;;;;;;;;;;6216240;23;20004;-91
2022/04/19 03:21:58;;;;;;;7.10;3.30;;;;;;;;;;6216465;23;20091;-92
2022/04/19 03:29:53;;;;;;;6.30;3.50;;;;;;;;;;6244962;23;20047;-91
2022/04/19 03:32:19;;;;;;;5.07;2.80;;;;;;;;;;6242786;23;19996;-91
2022/04/19 03:34:50;;;;;;;8.30;3.10;;;;;;;;;;6242621;23;19996;-91
2022/04/19 03:37:16;;;;;;;11.25;3.50;;;;;;;;;;6215377;23;20000;-90
2022/04/19 03:39:42;;;;;;;8.98;3.33;;;;;;;;;;6215554;23;20444;-92
2022/04/19 03:42:09;;;;;;;5.65;2.90;;;;;;;;;;6243488;23;19996;-92
2022/04/19 03:44:35;;;;;;;10.30;3.55;;;;;;;;;;6215676;23;20012;-93
2022/04/19 03:47:10;;;;;;;4.50;2.72;;;;;;;;;;6215871;23;20463;-89
2022/04/19 03:49:36;;;;;;;4.93;2.78;;;;;;;;;;6216713;23;20000;-93
2022/04/19 03:52:03;;;;;;;9.48;3.13;;;;;;;;;;6242530;23;20000;-91
2022/04/19 03:54:31;;;;;;;9.38;3.20;;;;;;;;;;6242322;23;20028;-90
2022/04/19 03:56:57;;;;;;;4.20;2.67;;;;;;;;;;6243283;23;20003;-89
2022/04/19 03:59:23;;;;;;;6.93;3.00;;;;;;;;;;6226206;23;20004;-88
2022/04/19 04:01:49;;;;;;;5.57;2.75;;;;;;;;;;6254621;23;20011;-86
2022/04/19 04:04:15;;;;;;;6.28;3.30;;;;;;;;;;6254137;23;20004;-90
2022/04/19 04:06:42;;;;;;;9.65;3.47;;;;;;;;;;6246954;23;20028;-86
2022/04/19 04:09:08;;;;;;;7.70;3.42;;;;;;;;;;6243295;23;20035;-92
2022/04/19 04:11:34;;;;;;;11.07;3.10;;;;;;;;;;6241889;23;20004;-92
2022/04/19 04:14:00;;;;;;;11.52;4.10;;;;;;;;;;6242444;23;20000;-90
2022/04/19 04:16:26;;;;;;;10.00;4.13;;;;;;;;;;6242172;23;20000;-88
2022/04/19 04:18:52;;;;;;;10.38;3.13;;;;;;;;;;6246243;23;20011;-91
2022/04/19 04:21:18;;;;;;;7.88;3.20;;;;;;;;;;6228478;23;20011;-88
2022/04/19 04:23:44;;;;;;;5.47;3.03;;;;;;;;;;6257292;23;20027;-88
2022/04/19 04:26:11;;;;;;;13.85;4.70;;;;;;;;;;6258297;23;20000;-87
2022/04/19 04:28:37;;;;;;;13.10;3.80;;;;;;;;;;6226954;23;20034;-88
2022/04/19 04:31:06;;;;;;;10.50;3.38;;;;;;;;;;6252707;23;20372;-88
2022/04/19 04:33:51;;;;;;;6.35;3.60;;;;;;;;;;6189586;23;20017;-91
2022/04/19 04:36:19;;;;;;;6.10;3.40;;;;;;;;;;6184625;23;20017;-89
2022/04/19 04:38:46;;;;;;;5.57;3.15;;;;;;;;;;6202211;23;20046;-89
2022/04/19 04:41:43;;;;;;;;;;;;;;;;;;;;;
2022/04/19 04:44:29;;;;;;;6.40;3.20;;;;;;;;;;6034609;23;20086;-91
2022/04/19 05:21:53;;;;;;;9.35;2.60;;;;;;;;;;6264221;22;20041;-92
2022/04/19 05:24:19;;;;;;;6.60;2.70;;;;;;;;;;6311288;22;20018;-90
2022/04/19 05:27:05;;;;;;;6.30;2.75;;;;;;;;;;6312856;22;20343;-92
2022/04/19 05:29:51;;;;;;;5.53;2.67;;;;;;;;;;6285578;22;20485;-92
2022/04/19 05:32:27;;;;;;;;;;;;;;;;;;;;;
2022/04/19 05:34:53;;;;;;;5.57;2.50;;;;;;;;;;6312115;22;20090;-92
2022/04/19 05:37:26;;;;;;;6.72;2.80;;;;;;;;;;6285120;22;20003;-92
2022/04/19 05:39:59;;;;;;;6.82;2.67;;;;;;;;;;6285573;22;20435;-92
2022/04/19 05:42:25;;;;;;;7.90;3.20;;;;;;;;;;6285139;22;20023;-90
2022/04/19 05:45:22;;;;;;;;;;;;;;;;;;;;;
2022/04/19 05:48:11;;;;;;;6.63;2.53;;;;;;;;;;6312466;22;20074;-92
2022/04/19 05:50:49;;;;;;;6.97;2.92;;;;;;;;;;6285016;22;20404;-93
2022/04/19 05:53:26;;;;;;;7.63;3.10;;;;;;;;;;6285749;22;20007;-92
2022/04/19 05:58:58;;;;;;;5.63;2.58;;;;;;;;;;6314613;22;20014;-90
2022/04/19 06:01:24;;;;;;;11.20;2.95;;;;;;;;;;6311574;22;19999;-92
2022/04/19 06:06:35;;;;;;;7.00;2.95;;;;;;;;;;6310952;22;20026;-90
2022/04/19 06:09:02;;;;;;;7.30;2.83;;;;;;;;;;6311542;22;20099;-91
2022/04/19 06:11:28;;;;;;;6.85;2.70;;;;;;;;;;6311630;22;19995;-91
2022/04/19 06:13:54;;;;;;;6.40;2.78;;;;;;;;;;6284063;22;20027;-91
2022/04/19 06:16:20;;;;;;;7.70;3.20;;;;;;;;;;6273352;22;20015;-90
2022/04/19 06:18:46;;;;;;;9.57;3.30;;;;;;;;;;6274391;22;20002;-91
2022/04/19 06:21:12;;;;;;;7.68;2.83;;;;;;;;;;6272062;22;20007;-91
2022/04/19 06:23:38;;;;;;;7.30;2.97;;;;;;;;;;6271965;22;20011;-93
2022/04/19 06:26:04;;;;;;;12.60;3.63;;;;;;;;;;6271938;22;20015;-91
2022/04/19 06:28:30;;;;;;;10.60;3.40;;;;;;;;;;6273366;22;20000;-90
2022/04/19 06:30:56;;;;;;;11.57;3.28;;;;;;;;;;6271826;22;20348;-91
2022/04/19 06:33:22;;;;;;;11.60;3.60;;;;;;;;;;6273360;22;20390;-90
2022/04/19 06:35:48;;;;;;;13.13;3.30;;;;;;;;;;6274807;22;20413;-91
2022/04/19 06:38:15;;;;;;;9.45;3.30;;;;;;;;;;6275828;22;20014;-90
2022/04/19 06:40:41;;;;;;;10.70;3.78;;;;;;;;;;6285792;22;19999;-92
2022/04/19 06:43:07;;;;;;;9.98;3.03;;;;;;;;;;6279928;22;20015;-90
2022/04/19 06:45:33;;;;;;;10.02;3.20;;;;;;;;;;6271210;22;20011;-92
2022/04/19 06:48:01;;;;;;;11.85;3.85;;;;;;;;;;6273305;22;19999;-91
2022/04/19 06:50:27;;;;;;;16.87;3.23;;;;;;;;;;6272271;22;20515;-90
2022/04/19 06:52:53;;;;;;;8.05;3.33;;;;;;;;;;6271735;22;20003;-90
2022/04/19 06:55:20;;;;;;;11.85;3.42;;;;;;;;;;6274099;22;19995;-90
2022/04/19 06:57:49;;;;;;;11.65;3.55;;;;;;;;;;6274184;22;20000;-90
2022/04/19 07:00:16;;;;;;;10.43;3.05;;;;;;;;;;6271535;22;20053;-90
2022/04/19 07:02:44;;;;;;;7.70;3.30;;;;;;;;;;6273216;22;20007;-90
2022/04/19 07:05:10;;;;;;;8.13;2.93;;;;;;;;;;6273123;22;20226;-90
2022/04/19 07:07:39;;;;;;;22.05;3.35;;;;;;;;;;6271292;22;20004;-90
2022/04/19 07:10:05;;;;;;;11.35;3.20;;;;;;;;;;6272747;22;20061;-89
2022/04/19 07:12:32;;;;;;;11.00;3.08;;;;;;;;;;6270977;22;20000;-89
2022/04/19 07:14:58;;;;;;;9.25;2.75;;;;;;;;;;6271024;22;20049;-90
2022/04/19 07:17:24;;;;;;;12.40;3.03;;;;;;;;;;6303732;22;20087;-90
2022/04/19 07:28:04;;;;;;;6.25;2.75;;;;;;;;;;6302961;22;20014;-90
2022/04/19 07:30:30;;;;;;;10.30;2.95;;;;;;;;;;6303264;22;20004;-92
2022/04/19 07:32:57;;;;;;;8.20;3.28;;;;;;;;;;6303251;22;19996;-90
2022/04/19 07:35:23;;;;;;;15.45;3.00;;;;;;;;;;6303340;22;20317;-89
2022/04/19 07:37:49;;;;;;;7.75;2.80;;;;;;;;;;6276831;22;20079;-90
2022/04/19 07:40:15;;;;;;;9.40;2.80;;;;;;;;;;6303410;22;20022;-89
2022/04/19 07:42:41;;;;;;;6.97;2.20;;;;;;;;;;6275831;22;20339;-90
2022/04/19 07:45:09;;;;;;;13.85;3.03;;;;;;;;;;6275646;22;20452;-90
2022/04/19 07:47:35;;;;;;;9.07;2.05;;;;;;;;;;6303256;22;20000;-90
2022/04/19 07:50:02;;;;;;;4.93;1.80;;;;;;;;;;6276050;22;20347;-90
2022/04/19 07:52:28;;;;;;;3.97;1.73;;;;;;;;;;6303019;22;19999;-90
2022/04/19 07:54:54;;;;;;;7.60;2.38;;;;;;;;;;6303244;22;20027;-89
2022/04/19 07:57:21;;;;;;;5.22;1.60;;;;;;;;;;6303920;22;19999;-90
2022/04/19 07:59:47;;;;;;;7.68;1.90;;;;;;;;;;6302973;22;20011;-90
2022/04/19 08:02:14;;;;;;;6.82;1.65;;;;;;;;;;6275543;22;20210;-90
2022/04/19 08:04:40;;;;;;;3.67;1.30;;;;;;;;;;6275834;22;20011;-91
2022/04/19 08:07:06;;;;;;;3.25;1.60;;;;;;;;;;6302610;22;19995;-89
2022/04/19 08:09:32;;;;;;;5.43;1.45;;;;;;;;;;6302870;22;20003;-90
2022/04/19 08:11:59;;;;;;;5.43;1.55;;;;;;;;;;6302818;22;20000;-91
2022/04/19 08:14:25;;;;;;;5.45;1.45;;;;;;;;;;6275487;22;20009;-89
2022/04/19 08:16:51;;;;;;;4.60;1.40;;;;;;;;;;6303629;22;20011;-91
2022/04/19 08:19:17;;;;;;;4.63;1.38;;;;;;;;;;6275444;22;20007;-91
2022/04/19 08:21:43;;;;;;;4.50;1.35;;;;;;;;;;6275167;22;20037;-89
2022/04/19 08:24:09;;;;;;;5.20;1.30;;;;;;;;;;6302271;22;20022;-89
2022/04/19 08:26:35;;;;;;;2.53;1.20;;;;;;;;;;6302265;22;20039;-88
2022/04/19 08:29:02;;;;;;;2.00;1.15;;;;;;;;;;6275038;22;20007;-90
2022/04/19 08:31:28;;;;;;;4.18;1.58;;;;;;;;;;6275105;22;20003;-89
2022/04/19 08:33:54;;;;;;;4.53;1.15;;;;;;;;;;6275819;22;20008;-89
2022/04/19 08:36:20;;;;;;;5.95;1.30;;;;;;;;;;6303023;22;19995;-88
2022/04/19 08:38:47;;;;;;;4.30;1.30;;;;;;;;;;6302241;22;20003;-87
2022/04/19 08:41:20;;;;;;;8.43;1.48;;;;;;;;;;6302236;22;19995;-88
2022/04/19 08:43:46;;;;;;;3.92;1.30;;;;;;;;;;6274376;22;20470;-89
2022/04/19 08:46:13;;;;;;;3.80;1.30;;;;;;;;;;6302539;22;20435;-88
2022/04/19 08:48:40;;;;;;;2.17;0.93;;;;;;;;;;6274736;22;20007;-89
2022/04/19 08:51:09;;;;;;;7.95;1.70;;;;;;;;;;6302539;22;20430;-88
2022/04/19 08:59:07;;;;;;;4.28;1.98;;;;;;;;;;6301827;22;20050;-90
2022/04/19 09:01:36;;;;;;;5.65;1.60;;;;;;;;;;6302038;22;20066;-88
2022/04/19 09:04:06;;;;;;;3.72;1.63;;;;;;;;;;6274673;22;19999;-88
2022/04/19 09:06:53;;;;;;;10.00;1.85;;;;;;;;;;6274552;22;20015;-88
2022/04/19 09:09:34;;;;;;;6.30;1.90;;;;;;;;;;6303171;22;20097;-89
2022/04/19 09:12:08;;;;;;;7.78;1.80;;;;;;;;;;6274629;22;20003;-87
2022/04/19 09:14:34;;;;;;;5.75;2.13;;;;;;;;;;6302396;22;20007;-88
2022/04/19 09:17:05;;;;;;;2.22;1.55;;;;;;;;;;6301733;22;20034;-88
2022/04/19 09:19:31;;;;;;;6.07;2.00;;;;;;;;;;6301692;22;20030;-89
2022/04/19 09:21:58;;;;;;;5.43;1.73;;;;;;;;;;6275293;22;20003;-88
2022/04/19 09:24:25;;;;;;;6.20;1.67;;;;;;;;;;6303089;22;20230;-88
2022/04/19 09:26:51;;;;;;;3.60;1.55;;;;;;;;;;6301890;22;20007;-88
2022/04/19 09:29:18;;;;;;;2.78;1.40;;;;;;;;;;6302012;22;20018;-89
2022/04/19 09:31:44;;;;;;;3.40;1.45;;;;;;;;;;6274472;22;20000;-89
2022/04/19 09:34:11;;;;;;;4.40;1.35;;;;;;;;;;6274973;22;20031;-89
2022/04/19 09:36:37;;;;;;;1.63;1.05;;;;;;;;;;6275084;22;20003;-90
2022/04/19 09:39:23;;;;;;;2.72;1.45;;;;;;;;;;6275263;22;20007;-88
2022/04/19 09:42:00;;;;;;;2.58;1.20;;;;;;;;;;6302113;22;20011;-90
2022/04/19 09:44:26;;;;;;;2.97;1.20;;;;;;;;;;6303093;22;20015;-87
2022/04/19 09:47:01;;;;;;;2.70;1.05;;;;;;;;;;6301955;22;19999;-88
2022/04/19 09:49:44;;;;;;;3.15;1.20;;;;;;;;;;6275556;22;20027;-88
2022/04/19 09:52:12;;;;;;;6.43;1.77;;;;;;;;;;6276349;22;20076;-90
2022/04/19 09:54:38;;;;;;;7.40;1.60;;;;;;;;;;6304003;22;20010;-89
2022/04/19 09:57:11;;;;;;;6.38;1.45;;;;;;;;;;6276100;22;20412;-88
2022/04/19 09:59:44;;;;;;;3.92;1.25;;;;;;;;;;6303375;22;20045;-87
2022/04/19 10:10:26;;;;;;;2.30;0.88;;;;;;;;;;6305005;22;20352;-88
2022/04/19 10:12:53;;;;;;;3.45;1.20;;;;;;;;;;6276215;22;20000;-87
2022/04/19 10:15:20;;;;;;;3.35;1.10;;;;;;;;;;6275912;22;20003;-88
2022/04/19 10:17:46;;;;;;;1.60;0.98;;;;;;;;;;6275795;22;20064;-87
2022/04/19 10:20:13;;;;;;;10.30;1.10;;;;;;;;;;6303740;22;20006;-86
2022/04/19 10:22:46;;;;;;;6.53;1.20;;;;;;;;;;6303325;22;20003;-87
2022/04/19 10:25:17;;;;;;;2.40;0.90;;;;;;;;;;6303848;22;20018;-88
2022/04/19 10:27:44;;;;;;;2.58;1.00;;;;;;;;;;6276349;22;19999;-88
2022/04/19 10:30:19;;;;;;;2.22;1.20;;;;;;;;;;6303350;22;20003;-88
2022/04/19 10:32:45;;;;;;;4.80;1.42;;;;;;;;;;6303582;22;20440;-87
2022/04/19 10:35:12;;;;;;;3.53;1.50;;;;;;;;;;6303464;22;20003;-87
2022/04/19 10:37:38;;;;;;;4.82;1.40;;;;;;;;;;6275905;22;20440;-87
2022/04/19 10:40:06;;;;;;;5.28;1.60;;;;;;;;;;6303224;22;20010;-86
2022/04/19 10:42:33;;;;;;;4.53;1.45;;;;;;;;;;6303516;22;20049;-86
2022/04/19 10:45:20;;;;;;;6.30;1.60;;;;;;;;;;6304360;22;20057;-87
2022/04/19 10:47:52;;;;;;;2.60;1.40;;;;;;;;;;6275750;22;20093;-86
2022/04/19 10:50:29;;;;;;;3.47;1.60;;;;;;;;;;6303147;22;20471;-87
2022/04/19 10:53:04;;;;;;;3.78;1.65;;;;;;;;;;6303055;22;20003;-86
2022/04/19 10:55:40;;;;;;;4.93;1.40;;;;;;;;;;6304128;22;20530;-87
2022/04/19 10:58:06;;;;;;;4.82;1.50;;;;;;;;;;6303181;22;20027;-87
2022/04/19 11:00:35;;;;;;;6.43;1.40;;;;;;;;;;6304349;22;19995;-87
2022/04/19 11:03:09;;;;;;;5.38;1.80;;;;;;;;;;6304088;22;20025;-87
2022/04/19 11:05:50;;;;;;;5.72;3.15;;;;;;;;;;6275394;22;20015;-87
2022/04/19 11:08:19;;;;;;;5.13;1.70;;;;;;;;;;6275453;22;20090;-86
2022/04/19 11:10:45;;;;;;;6.95;2.72;;;;;;;;;;6275693;22;20003;-86
2022/04/19 11:13:12;;;;;;;15.98;5.72;;;;;;;;;;6275679;22;20056;-85
2022/04/19 11:15:38;;;;;;;4.88;2.15;;;;;;;;;;6302965;22;20007;-86
2022/04/19 11:18:22;;;;;;;3.97;1.40;;;;;;;;;;6275727;22;20420;-86
2022/04/19 11:20:49;;;;;;;5.57;1.60;;;;;;;;;;6302766;22;20010;-87
2022/04/19 11:23:22;;;;;;;6.70;1.40;;;;;;;;;;6302801;22;20006;-86
2022/04/19 11:25:49;;;;;;;10.30;4.90;;;;;;;;;;6275264;22;20014;-86
2022/04/19 11:28:15;;;;;;;8.93;2.00;;;;;;;;;;6302875;22;19999;-86
2022/04/19 11:30:44;;;;;;;6.18;1.30;;;;;;;;;;6302684;22;20439;-86
2022/04/19 11:33:11;;;;;;;5.43;1.38;;;;;;;;;;6275063;22;19999;-87
2022/04/19 11:35:37;;;;;;;4.95;1.48;;;;;;;;;;6302797;22;19999;-87
2022/04/19 11:38:04;;;;;;;4.57;1.20;;;;;;;;;;6276392;22;20010;-86
2022/04/19 11:48:52;;;;;;;3.90;1.30;;;;;;;;;;6302517;22;20095;-86
2022/04/19 11:51:22;;;;;;;3.88;1.10;;;;;;;;;;6302509;22;20027;-86
2022/04/19 11:53:50;;;;;;;2.63;0.93;;;;;;;;;;6302463;22;20078;-87
2022/04/19 11:56:16;;;;;;;4.18;1.60;;;;;;;;;;6274910;22;20000;-86
2022/04/19 11:58:43;;;;;;;4.22;1.23;;;;;;;;;;6302616;22;19999;-87
2022/04/19 12:01:10;;;;;;;5.47;1.33;;;;;;;;;;6302605;22;20006;-87
2022/04/19 12:03:37;;;;;;;2.58;1.27;;;;;;;;;;6275663;22;20015;-86
2022/04/19 12:06:07;;;;;;;3.67;1.45;;;;;;;;;;6303322;22;20003;-86
2022/04/19 12:08:43;;;;;;;5.80;1.30;;;;;;;;;;6276019;22;20006;-89
2022/04/19 12:11:10;;;;;;;2.75;1.15;;;;;;;;;;6302640;22;20006;-86
2022/04/19 12:13:36;;;;;;;6.43;1.60;;;;;;;;;;6303240;22;19999;-87
2022/04/19 12:16:09;;;;;;;7.60;1.38;;;;;;;;;;6303565;22;20467;-87
2022/04/19 12:18:36;;;;;;;3.58;1.20;;;;;;;;;;6303277;22;20072;-87
2022/04/19 12:21:04;;;;;;;3.92;1.10;;;;;;;;;;6303222;22;20414;-86
2022/04/19 12:23:30;;;;;;;3.00;1.10;;;;;;;;;;6302393;22;20003;-86
2022/04/19 12:26:12;;;;;;;6.07;1.17;;;;;;;;;;6302349;22;20003;-86
2022/04/19 12:28:38;;;;;;;2.83;1.27;;;;;;;;;;6303147;22;20000;-87
2022/04/19 12:31:05;;;;;;;5.60;1.20;;;;;;;;;;6303094;22;20456;-86
2022/04/19 12:33:31;;;;;;;2.83;1.10;;;;;;;;;;6302098;22;19995;-86
2022/04/19 12:35:58;;;;;;;1.90;1.10;;;;;;;;;;6301949;22;19999;-88
2022/04/19 12:38:31;;;;;;;6.07;1.33;;;;;;;;;;6302344;22;20056;-87
2022/04/19 12:40:58;;;;;;;4.03;1.25;;;;;;;;;;6302184;22;19999;-87
2022/04/19 12:43:44;;;;;;;5.82;1.40;;;;;;;;;;6302012;22;20000;-86
2022/04/19 12:46:11;;;;;;;3.75;1.77;;;;;;;;;;6301976;22;20053;-86
2022/04/19 12:48:38;;;;;;;4.13;1.25;;;;;;;;;;6303305;22;20439;-85
2022/04/19 12:51:04;;;;;;;3.60;1.20;;;;;;;;;;6303376;22;20000;-87
2022/04/19 12:53:33;;;;;;;4.35;1.27;;;;;;;;;;6302041;22;20026;-86
2022/04/19 12:56:09;;;;;;;1.80;0.98;;;;;;;;;;6301925;22;20233;-87
2022/04/19 12:58:42;;;;;;;8.93;1.40;;;;;;;;;;6303011;22;20128;-87
2022/04/19 13:01:08;;;;;;;4.32;1.02;;;;;;;;;;6275474;22;20060;-86
2022/04/19 13:03:34;;;;;;;3.08;1.40;;;;;;;;;;6302024;22;20000;-86
2022/04/19 13:14:15;;;;;;;2.40;0.93;;;;;;;;;;6301850;22;20064;-87
2022/04/19 13:16:41;;;;;;;2.22;1.00;;;;;;;;;;6301776;22;20432;-86
2022/04/19 13:19:07;;;;;;;3.00;1.20;;;;;;;;;;6302943;22;20010;-86
2022/04/19 13:21:33;;;;;;;3.63;1.13;;;;;;;;;;6301689;22;20003;-86
2022/04/19 13:23:59;;;;;;;2.22;1.17;;;;;;;;;;6274502;22;20015;-87
2022/04/19 13:26:26;;;;;;;6.40;1.35;;;;;;;;;;6303212;22;20070;-87
2022/04/19 13:28:53;;;;;;;5.90;1.15;;;;;;;;;;6304063;22;20475;-87
2022/04/19 13:31:19;;;;;;;4.18;1.20;;;;;;;;;;6304072;22;19999;-87
2022/04/19 13:33:45;;;;;;;7.65;1.40;;;;;;;;;;6276435;22;20350;-86
2022/04/19 13:36:11;;;;;;;3.67;1.05;;;;;;;;;;6304849;22;20003;-87
2022/04/19 13:38:37;;;;;;;3.25;1.10;;;;;;;;;;6305441;22;20014;-86
2022/04/19 13:41:03;;;;;;;3.42;1.20;;;;;;;;;;6276473;22;20007;-88
2022/04/19 13:43:30;;;;;;;7.22;1.60;;;;;;;;;;6303913;22;20117;-88
2022/04/19 13:45:56;;;;;;;5.38;1.10;;;;;;;;;;6303859;22;20065;-88
2022/04/19 13:48:22;;;;;;;2.50;0.98;;;;;;;;;;6303895;22;19995;-88
2022/04/19 13:50:48;;;;;;;4.57;1.80;;;;;;;;;;6276306;22;20010;-86
2022/04/19 13:53:14;;;;;;;6.78;2.10;;;;;;;;;;6303875;22;20371;-85
2022/04/19 13:55:40;;;;;;;13.38;3.30;;;;;;;;;;6277432;22;19999;-88
2022/04/19 13:58:06;;;;;;;6.75;2.00;;;;;;;;;;6303602;22;20444;-87
2022/04/19 14:00:32;;;;;;;3.97;1.60;;;;;;;;;;6303923;22;20459;-87
2022/04/19 14:02:59;;;;;;;5.95;1.25;;;;;;;;;;6276347;22;20003;-87
2022/04/19 14:05:25;;;;;;;3.72;1.40;;;;;;;;;;6303306;22;20083;-86
2022/04/19 14:07:51;;;;;;;2.45;1.08;;;;;;;;;;6277586;22;20532;-87
2022/04/19 14:10:17;;;;;;;3.45;1.25;;;;;;;;;;6303736;22;20003;-87
2022/04/19 14:12:43;;;;;;;2.70;1.30;;;;;;;;;;6304626;22;20436;-87
2022/04/19 14:15:10;;;;;;;2.67;1.20;;;;;;;;;;6304412;22;19995;-87
2022/04/19 14:17:37;;;;;;;2.50;1.30;;;;;;;;;;6303755;22;20003;-89
2022/04/19 14:20:04;;;;;;;5.63;1.35;;;;;;;;;;6303539;22;19995;-89
2022/04/19 14:22:30;;;;;;;2.63;1.15;;;;;;;;;;6304047;22;20030;-87
2022/04/19 14:24:56;;;;;;;5.07;1.30;;;;;;;;;;6306920;22;20007;-85
2022/04/19 14:27:22;;;;;;;7.60;1.30;;;;;;;;;;6300327;22;20000;-85
2022/04/19 14:35:31;;;;;;;3.42;1.00;;;;;;;;;;6253292;22;20306;-88
2022/04/19 14:37:57;;;;;;;6.03;1.73;;;;;;;;;;6303503;22;20478;-87
2022/04/19 14:40:23;;;;;;;6.43;1.55;;;;;;;;;;6303920;22;20007;-88
2022/04/19 14:42:49;;;;;;;6.53;1.55;;;;;;;;;;6275969;22;20003;-86
2022/04/19 14:45:16;;;;;;;3.58;1.27;;;;;;;;;;6277247;22;20455;-86
2022/04/19 14:47:42;;;;;;;4.13;1.30;;;;;;;;;;6304774;22;20049;-88
2022/04/19 14:50:08;;;;;;;5.68;1.10;;;;;;;;;;6303700;22;20396;-87
2022/04/19 14:52:34;;;;;;;6.20;1.48;;;;;;;;;;6303254;22;19999;-87
2022/04/19 14:55:00;;;;;;;5.55;1.23;;;;;;;;;;6302998;22;20340;-86
2022/04/19 14:57:27;;;;;;;4.15;1.40;;;;;;;;;;6303007;22;20408;-89
2022/04/19 14:59:53;;;;;;;2.70;1.30;;;;;;;;;;6276169;22;20086;-90
2022/04/19 15:02:19;;;;;;;5.75;1.42;;;;;;;;;;6303354;22;20027;-89
2022/04/19 15:04:45;;;;;;;5.97;1.25;;;;;;;;;;6304053;22;20019;-86
2022/04/19 15:07:11;;;;;;;7.57;1.25;;;;;;;;;;6275754;22;20091;-87
2022/04/19 15:09:39;;;;;;;4.43;1.30;;;;;;;;;;6275524;22;20011;-87
2022/04/19 15:12:06;;;;;;;4.07;1.25;;;;;;;;;;6302842;22;20079;-87
2022/04/19 15:14:33;;;;;;;5.63;1.38;;;;;;;;;;6275639;22;20393;-86
2022/04/19 15:16:59;;;;;;;6.20;1.42;;;;;;;;;;6302787;22;20027;-86
2022/04/19 15:19:25;;;;;;;5.70;1.38;;;;;;;;;;6275736;22;20347;-87
2022/04/19 15:21:51;;;;;;;3.10;1.38;;;;;;;;;;6302894;22;20002;-87
2022/04/19 15:24:18;;;;;;;8.15;1.58;;;;;;;;;;6303830;22;20486;-85
2022/04/19 15:26:47;;;;;;;5.20;1.52;;;;;;;;;;6276187;22;20317;-86
2022/04/19 15:29:13;;;;;;;8.98;2.25;;;;;;;;;;6275763;22;20011;-89
2022/04/19 15:31:39;;;;;;;5.03;1.27;;;;;;;;;;6303531;22;20046;-86
2022/04/19 15:34:06;;;;;;;6.80;1.23;;;;;;;;;;6304122;22;20070;-85
2022/04/19 15:36:32;;;;;;;5.30;1.33;;;;;;;;;;6302830;22;20003;-91
2022/04/19 15:38:58;;;;;;;4.40;1.35;;;;;;;;;;6275394;22;19999;-91
2022/04/19 15:41:25;;;;;;;4.93;1.58;;;;;;;;;;6275633;22;20003;-89
2022/04/19 15:43:51;;;;;;;7.28;1.20;;;;;;;;;;6303100;22;20007;-85
2022/04/19 15:46:17;;;;;;;3.80;1.20;;;;;;;;;;6276697;22;20011;-86
2022/04/19 15:48:44;;;;;;;4.68;1.15;;;;;;;;;;6302488;22;20005;-89
2022/04/19 15:51:13;;;;;;;7.55;1.58;;;;;;;;;;6275519;22;20011;-92
2022/04/19 15:53:43;;;;;;;4.50;1.25;;;;;;;;;;6305723;22;20072;-89
2022/04/19 15:56:09;;;;;;;5.88;1.48;;;;;;;;;;6276606;22;20060;-90
2022/04/19 15:58:35;;;;;;;8.13;1.70;;;;;;;;;;6276355;22;20003;-89
2022/04/19 16:01:02;;;;;;;8.10;1.45;;;;;;;;;;6275902;22;20003;-90
2022/04/19 16:03:28;;;;;;;5.13;1.30;;;;;;;;;;6275660;22;20004;-92
2022/04/19 16:05:54;;;;;;;5.32;1.58;;;;;;;;;;6302756;22;20011;-89
2022/04/19 16:08:23;;;;;;;6.13;1.40;;;;;;;;;;6304431;22;20041;-92
2022/04/19 16:10:50;;;;;;;7.60;1.52;;;;;;;;;;6304757;22;20007;-91
2022/04/19 16:13:16;;;;;;;3.75;1.20;;;;;;;;;;6276737;22;20348;-89
2022/04/19 16:15:46;;;;;;;8.52;1.33;;;;;;;;;;6303592;22;20007;-91
2022/04/19 16:23:46;;;;;;;5.40;1.42;;;;;;;;;;6304172;22;20019;-92
2022/04/19 16:26:12;;;;;;;7.88;1.55;;;;;;;;;;6276307;22;20321;-90
2022/04/19 16:29:08;;;;;;;5.68;1.55;;;;;;;;;;6303190;22;19999;-91
2022/04/19 16:31:33;;;;;;;3.78;1.20;;;;;;;;;;6302622;22;20465;-88
2022/04/19 16:33:59;;;;;;;5.68;1.75;;;;;;;;;;6303950;22;20003;-90
2022/04/19 16:36:25;;;;;;;7.47;1.67;;;;;;;;;;6308561;22;20076;-87
2022/04/19 16:38:51;;;;;;;5.00;1.60;;;;;;;;;;6303576;22;20004;-88
2022/04/19 16:41:21;;;;;;;7.55;1.50;;;;;;;;;;6302067;22;20385;-88